Time;durP1;ratioP1;P1;durP2;ratioP2;P2;SDS_P1;SDS_P2;PMS_P1;PMS_P2;Temp;Humidity;BMP_temperature;BMP_pressure;BME280_temperature;BME280_humidity;BME280_pressure;Samples;Min_cycle;Max_cycle;Signal;HPM_P1;HPM_P2
2022/04/04 00:02:21;;;;;;;9.70;6.47;;;;;;;2.00;75.61;101772.56;5010801;28;20417;-74
2022/04/04 00:04:46;;;;;;;9.32;6.90;;;;;;;2.00;75.25;101757.38;5013269;28;20087;-74
2022/04/04 00:07:12;;;;;;;8.98;6.60;;;;;;;1.98;75.45;101761.16;5013249;28;20034;-74
2022/04/04 00:09:37;;;;;;;12.25;6.85;;;;;;;1.98;75.37;101753.16;5013172;28;20057;-71
2022/04/04 00:12:03;;;;;;;10.23;7.10;;;;;;;1.93;75.63;101751.78;5013346;28;20034;-72
2022/04/04 00:14:28;;;;;;;11.93;6.70;;;;;;;1.89;75.75;101742.38;5013455;28;20033;-72
2022/04/04 00:16:53;;;;;;;9.88;6.75;;;;;;;1.89;75.34;101745.06;5013422;28;20026;-72
2022/04/04 00:19:19;;;;;;;9.07;7.00;;;;;;;1.87;75.36;101736.38;5011901;28;20034;-72
2022/04/04 00:21:44;;;;;;;10.35;6.70;;;;;;;1.88;76.07;101748.69;5013344;28;20039;-73
2022/04/04 00:24:10;;;;;;;10.40;6.47;;;;;;;1.90;75.26;101737.88;5013000;28;20377;-72
2022/04/04 00:26:35;;;;;;;9.70;6.85;;;;;;;1.86;75.03;101736.50;5013206;28;20038;-72
2022/04/04 00:29:00;;;;;;;10.25;6.95;;;;;;;1.83;75.64;101734.09;5012928;28;20034;-73
2022/04/04 00:31:26;;;;;;;10.27;6.55;;;;;;;1.80;75.76;101729.06;5012807;28;20112;-72
2022/04/04 00:33:52;;;;;;;11.57;7.40;;;;;;;1.75;75.79;101732.16;5012700;28;20022;-74
2022/04/04 00:36:17;;;;;;;15.65;7.57;;;;;;;1.79;75.07;101719.38;5012597;28;20547;-73
2022/04/04 00:38:43;;;;;;;12.32;7.78;;;;;;;1.79;75.36;101717.56;5012999;28;20453;-72
2022/04/04 00:41:10;;;;;;;10.20;7.38;;;;;;;1.75;75.50;101719.69;5012980;28;20042;-74
2022/04/04 00:43:36;;;;;;;10.88;7.38;;;;;;;1.77;75.58;101719.53;5013184;28;20034;-73
2022/04/04 00:46:01;;;;;;;12.15;7.00;;;;;;;1.72;76.05;101711.09;5012889;28;20454;-74
2022/04/04 00:48:27;;;;;;;16.63;8.32;;;;;;;1.67;75.78;101702.72;5012533;28;20041;-73
2022/04/04 00:50:52;;;;;;;11.85;7.45;;;;;;;1.64;76.12;101705.66;5012868;28;20041;-73
2022/04/04 00:53:18;;;;;;;12.65;7.93;;;;;;;1.58;76.65;101694.56;5012325;28;20383;-73
2022/04/04 00:55:43;;;;;;;12.07;7.60;;;;;;;1.61;76.53;101697.97;5012740;28;20060;-73
2022/04/04 00:58:09;;;;;;;12.93;7.70;;;;;;;1.56;76.10;101691.22;5012435;28;20396;-72
2022/04/04 01:00:35;;;;;;;11.43;7.78;;;;;;;1.59;76.40;101695.44;5010684;28;20033;-73
2022/04/04 01:03:01;;;;;;;15.80;8.25;;;;;;;1.58;76.49;101681.22;5013028;28;20030;-72
2022/04/04 01:05:26;;;;;;;10.60;7.90;;;;;;;1.54;76.65;101677.19;5012527;28;20378;-72
2022/04/04 01:07:52;;;;;;;10.82;7.65;;;;;;;1.55;76.34;101680.69;5012384;28;20072;-73
2022/04/04 01:10:17;;;;;;;13.27;8.20;;;;;;;1.59;76.51;101669.59;5012165;28;20037;-73
2022/04/04 01:12:53;;;;;;;10.82;7.82;;;;;;;1.58;75.82;101662.56;5012629;28;20447;-73
2022/04/04 01:15:22;;;;;;;13.95;8.02;;;;;;;1.59;76.43;101661.59;5012408;28;20037;-74
2022/04/04 01:17:47;;;;;;;12.63;7.82;;;;;;;1.64;75.88;101663.81;5012355;28;20037;-72
2022/04/04 01:20:14;;;;;;;10.95;8.00;;;;;;;1.57;75.66;101655.56;5012343;28;20109;-73
2022/04/04 01:22:40;;;;;;;11.48;7.68;;;;;;;1.53;76.23;101646.16;5012246;28;20389;-73
2022/04/04 01:25:06;;;;;;;13.18;7.85;;;;;;;1.50;76.04;101643.78;5012506;28;20028;-72
2022/04/04 01:27:31;;;;;;;12.80;7.80;;;;;;;1.54;75.54;101647.84;5012255;28;20457;-73
2022/04/04 01:29:56;;;;;;;11.45;8.10;;;;;;;1.54;75.64;101636.31;5012226;28;20032;-74
2022/04/04 01:32:22;;;;;;;11.82;8.13;;;;;;;1.55;75.37;101633.50;5012318;28;20424;-72
2022/04/04 01:34:47;;;;;;;10.55;7.82;;;;;;;1.56;75.23;101632.53;5012413;28;20041;-74
2022/04/04 01:37:12;;;;;;;12.00;7.50;;;;;;;1.55;74.91;101625.50;5012005;28;20038;-73
2022/04/04 01:39:37;;;;;;;13.77;7.82;;;;;;;1.57;74.89;101622.69;5012165;28;20080;-73
2022/04/04 01:42:04;;;;;;;13.95;8.18;;;;;;;1.58;75.70;101609.22;5012421;28;20022;-72
2022/04/04 01:44:29;;;;;;;13.38;7.78;;;;;;;1.56;75.52;101602.34;5011493;28;20026;-75
2022/04/04 01:46:54;;;;;;;10.60;7.50;;;;;;;1.59;74.79;101607.41;5016139;28;20072;-71
2022/04/04 01:49:19;;;;;;;11.25;7.82;;;;;;;1.56;74.87;101599.69;5015765;28;20041;-74
2022/04/04 01:51:45;;;;;;;10.60;8.10;;;;;;;1.54;75.19;101596.31;5015767;28;20030;-72
2022/04/04 01:54:10;;;;;;;12.98;7.97;;;;;;;1.55;74.99;101593.50;4998004;28;20125;-72
2022/04/04 01:56:36;;;;;;;11.00;8.05;;;;;;;1.52;75.30;101591.13;5015813;28;20041;-75
2022/04/04 01:59:01;;;;;;;12.90;7.75;;;;;;;1.53;74.65;101581.31;5015915;28;20033;-72
2022/04/04 02:01:27;;;;;;;12.60;8.07;;;;;;;1.53;74.91;101573.31;5013304;28;20041;-73
2022/04/04 02:03:54;;;;;;;12.52;7.95;;;;;;;1.43;75.07;101562.66;5015862;28;20111;-75
2022/04/04 02:06:20;;;;;;;12.52;7.95;;;;;;;1.47;75.26;101569.41;5015619;28;20036;-73
2022/04/04 02:08:46;;;;;;;13.63;7.30;;;;;;;1.46;75.25;101562.38;5015705;28;20397;-74
2022/04/04 02:11:13;;;;;;;12.65;8.10;;;;;;;1.47;74.86;101568.56;5015282;28;20068;-74
2022/04/04 02:13:40;;;;;;;11.60;7.50;;;;;;;1.48;75.42;101556.91;4998209;28;20042;-72
2022/04/04 02:16:05;;;;;;;10.05;7.10;;;;;;;1.49;75.29;101554.06;5015601;28;20053;-74
2022/04/04 02:18:32;;;;;;;11.60;7.85;;;;;;;1.51;74.65;101551.25;5015040;28;20072;-72
2022/04/04 02:20:58;;;;;;;11.07;7.75;;;;;;;1.49;75.07;101548.75;5015600;28;20073;-72
2022/04/04 02:23:24;;;;;;;11.68;7.82;;;;;;;1.48;74.57;101533.75;5015021;28;20106;-72
2022/04/04 02:25:52;;;;;;;10.63;7.07;;;;;;;1.54;74.47;101542.97;5015397;28;20057;-73
2022/04/04 02:28:18;;;;;;;9.02;7.00;;;;;;;1.50;74.90;101528.25;5015066;28;20029;-71
2022/04/04 02:30:44;;;;;;;11.85;7.10;;;;;;;1.56;74.22;101525.81;5015318;28;20030;-74
2022/04/04 02:33:12;;;;;;;11.93;7.35;;;;;;;1.52;74.81;101529.78;5015307;28;20126;-73
2022/04/04 02:35:37;;;;;;;9.98;6.85;;;;;;;1.54;74.98;101521.63;5015104;28;20120;-74
2022/04/04 02:38:03;;;;;;;11.13;7.25;;;;;;;1.54;75.21;101517.16;5015225;28;20097;-73
2022/04/04 02:40:28;;;;;;;10.32;7.00;;;;;;;1.55;75.17;101510.81;5014813;28;20032;-73
2022/04/04 02:42:54;;;;;;;11.25;7.18;;;;;;;1.60;74.93;101507.69;5015077;28;20107;-73
2022/04/04 02:45:19;;;;;;;10.18;7.40;;;;;;;1.57;75.17;101505.31;5014787;28;20129;-73
2022/04/04 02:47:45;;;;;;;13.43;7.60;;;;;;;1.59;74.62;101506.84;5015193;28;20373;-72
2022/04/04 02:50:11;;;;;;;14.18;7.55;;;;;;;1.61;75.19;101498.69;5014887;28;20026;-73
2022/04/04 02:52:39;;;;;;;11.68;7.05;;;;;;;1.64;74.57;101489.56;5013156;28;20112;-72
2022/04/04 02:57:50;;;;;;;10.57;6.93;;;;;;;1.63;75.14;101486.06;5014872;28;20087;-75
2022/04/04 03:00:20;;;;;;;13.25;7.22;;;;;;;1.63;75.17;101471.88;5014289;28;20026;-72
2022/04/04 03:02:46;;;;;;;10.52;7.15;;;;;;;1.67;74.77;101473.25;5013204;28;20030;-72
2022/04/04 03:05:12;;;;;;;9.65;6.70;;;;;;;1.69;75.03;101460.59;5014699;28;20034;-74
2022/04/04 03:07:37;;;;;;;10.23;6.60;;;;;;;1.70;74.96;101462.28;4996731;28;20054;-71
2022/04/04 03:10:03;;;;;;;12.05;7.03;;;;;;;1.68;75.14;101457.09;5014312;28;20030;-72
2022/04/04 03:12:28;;;;;;;12.15;7.15;;;;;;;1.71;75.50;101447.97;5014305;28;20036;-74
2022/04/04 03:14:54;;;;;;;11.65;6.90;;;;;;;1.74;75.02;101450.31;5014247;28;20042;-72
2022/04/04 03:17:19;;;;;;;11.10;6.95;;;;;;;1.80;75.35;101440.84;5012968;28;20030;-72
2022/04/04 03:19:44;;;;;;;9.05;6.72;;;;;;;1.76;74.83;101432.31;5014444;28;20030;-74
2022/04/04 03:22:10;;;;;;;12.43;6.70;;;;;;;1.76;75.51;101432.31;5014599;28;20030;-74
2022/04/04 03:24:35;;;;;;;11.25;6.90;;;;;;;1.81;75.67;101423.84;5014216;28;20041;-74
2022/04/04 03:27:01;;;;;;;11.95;7.00;;;;;;;1.79;75.96;101421.34;5013060;28;20072;-72
2022/04/04 03:29:26;;;;;;;10.13;6.78;;;;;;;1.83;75.88;101424.53;5014030;28;20030;-73
2022/04/04 03:31:53;;;;;;;9.55;6.70;;;;;;;1.84;75.24;101415.53;5014216;28;20474;-72
2022/04/04 03:34:18;;;;;;;10.07;7.03;;;;;;;1.83;75.87;101406.72;4996544;28;20178;-72
2022/04/04 03:36:43;;;;;;;10.02;6.97;;;;;;;1.89;75.72;101408.75;5014028;28;20026;-73
2022/04/04 03:39:12;;;;;;;8.40;6.65;;;;;;;1.90;75.19;101405.09;5014319;28;20034;-73
2022/04/04 03:41:38;;;;;;;8.93;6.60;;;;;;;1.94;75.35;101393.09;5012582;28;20048;-73
2022/04/04 03:44:06;;;;;;;12.75;6.40;;;;;;;1.92;75.56;101383.59;4996449;28;20030;-71
2022/04/04 03:46:32;;;;;;;12.10;6.47;;;;;;;1.90;75.33;101375.75;5012422;28;20491;-73
2022/04/04 03:48:57;;;;;;;13.75;7.07;;;;;;;1.91;75.94;101377.41;5013549;28;20037;-72
2022/04/04 03:51:23;;;;;;;10.23;6.20;;;;;;;1.94;75.84;101374.41;5013550;28;20026;-74
2022/04/04 03:53:48;;;;;;;9.82;6.45;;;;;;;1.94;75.73;101369.06;5012320;28;20050;-72
2022/04/04 03:56:14;;;;;;;12.68;6.85;;;;;;;1.97;75.68;101362.59;5013378;28;20396;-72
2022/04/04 03:58:39;;;;;;;13.20;7.35;;;;;;;1.97;76.07;101361.78;5013155;28;20457;-72
2022/04/04 04:01:05;;;;;;;11.00;6.93;;;;;;;1.99;75.93;101357.94;5011480;28;20069;-72
2022/04/04 04:03:31;;;;;;;13.85;6.85;;;;;;;2.04;76.16;101358.31;5013661;28;20026;-73
2022/04/04 04:06:11;;;;;;;11.45;7.13;;;;;;;2.04;76.32;101357.47;5013563;28;20465;-72
2022/04/04 04:08:38;;;;;;;13.52;7.60;;;;;;;2.05;76.27;101348.47;4995030;28;20465;-72
2022/04/04 04:11:03;;;;;;;11.43;7.15;;;;;;;2.03;76.87;101350.47;5013177;28;20030;-71
2022/04/04 04:13:28;;;;;;;11.52;7.53;;;;;;;2.08;76.60;101342.81;5013258;28;20512;-72
2022/04/04 04:15:54;;;;;;;16.27;7.00;;;;;;;2.08;76.34;101343.69;5013162;28;20037;-73
2022/04/04 04:18:20;;;;;;;11.57;7.15;;;;;;;2.11;75.94;101331.81;4995840;28;20116;-73
2022/04/04 04:20:45;;;;;;;11.10;7.18;;;;;;;2.11;76.46;101329.16;5013074;28;20529;-74
2022/04/04 04:23:10;;;;;;;10.38;7.50;;;;;;;2.10;77.29;101322.16;5013239;28;20124;-72
2022/04/04 04:25:37;;;;;;;15.23;8.00;;;;;;;2.15;77.32;101327.03;5012690;28;20045;-71
2022/04/04 04:28:04;;;;;;;12.00;7.60;;;;;;;2.15;76.59;101311.84;5012841;28;20022;-71
2022/04/04 04:30:31;;;;;;;11.35;7.63;;;;;;;2.20;76.81;101314.84;4995530;28;20033;-71
2022/04/04 04:32:56;;;;;;;12.75;7.47;;;;;;;2.21;76.81;101305.84;5013101;28;20067;-73
2022/04/04 04:35:23;;;;;;;12.60;7.70;;;;;;;2.22;77.08;101304.00;5012897;28;20030;-72
2022/04/04 04:37:50;;;;;;;11.65;7.15;;;;;;;2.23;76.74;101309.19;5013036;28;20112;-73
2022/04/04 04:40:15;;;;;;;14.32;8.23;;;;;;;2.25;77.26;101288.53;5012949;28;20462;-72
2022/04/04 04:42:43;;;;;;;11.45;7.70;;;;;;;2.26;77.39;101282.16;5012700;28;20044;-72
2022/04/04 04:45:09;;;;;;;13.70;7.60;;;;;;;2.28;77.12;101274.84;5012950;28;20111;-71
2022/04/04 04:47:34;;;;;;;16.10;7.93;;;;;;;2.29;77.24;101278.34;5012669;28;20061;-73
2022/04/04 04:50:01;;;;;;;13.48;7.80;;;;;;;2.34;76.97;101277.88;5012825;28;20088;-75
2022/04/04 04:52:27;;;;;;;11.40;7.85;;;;;;;2.30;76.98;101267.50;5012454;28;20065;-72
2022/04/04 04:54:53;;;;;;;13.68;8.18;;;;;;;2.38;77.27;101271.22;5012410;28;20454;-73
2022/04/04 04:57:19;;;;;;;14.70;8.00;;;;;;;2.33;77.28;101261.03;5012375;28;20030;-72
2022/04/04 04:59:45;;;;;;;13.45;8.30;;;;;;;2.36;77.32;101260.69;5012566;28;20030;-74
2022/04/04 05:02:11;;;;;;;12.48;8.10;;;;;;;2.40;76.66;101250.50;5010477;28;20052;-73
2022/04/04 05:04:37;;;;;;;13.32;8.10;;;;;;;2.43;77.12;101244.84;5012813;28;20384;-74
2022/04/04 05:07:03;;;;;;;12.75;7.90;;;;;;;2.41;77.44;101246.84;5011414;28;20026;-73
2022/04/04 05:09:28;;;;;;;14.27;8.68;;;;;;;2.47;76.74;101247.03;5012343;28;20046;-75
2022/04/04 05:11:53;;;;;;;15.88;8.30;;;;;;;2.49;76.85;101236.19;5012598;28;20037;-73
2022/04/04 05:14:19;;;;;;;11.93;7.88;;;;;;;2.48;77.05;101229.19;5012339;28;20037;-73
2022/04/04 05:16:46;;;;;;;13.93;8.30;;;;;;;2.51;76.84;101233.34;5012425;28;20026;-75
2022/04/04 05:19:17;;;;;;;14.00;8.27;;;;;;;2.54;77.13;101219.69;5014366;28;20072;-72
2022/04/04 05:21:43;;;;;;;13.18;8.80;;;;;;;2.57;76.47;101211.34;5016076;28;20385;-72
2022/04/04 05:24:08;;;;;;;15.57;9.32;;;;;;;2.56;76.98;101207.81;5016328;28;20034;-74
2022/04/04 05:26:34;;;;;;;13.20;8.50;;;;;;;2.56;76.87;101199.81;5016341;28;20424;-74
2022/04/04 05:29:00;;;;;;;12.55;8.50;;;;;;;2.58;76.40;101200.50;5016066;28;20026;-72
2022/04/04 05:31:25;;;;;;;17.63;9.95;;;;;;;2.64;77.18;101194.50;5016260;28;20525;-75
2022/04/04 05:33:51;;;;;;;17.30;10.48;;;;;;;2.63;77.16;101182.13;5016383;28;20084;-73
2022/04/04 05:36:17;;;;;;;18.83;9.73;;;;;;;2.64;76.89;101186.47;5016175;28;20034;-74
2022/04/04 05:38:42;;;;;;;15.13;9.77;;;;;;;2.66;77.01;101179.13;5016141;28;20034;-72
2022/04/04 05:41:08;;;;;;;17.73;9.85;;;;;;;2.70;76.59;101176.13;5016193;28;20079;-72
2022/04/04 05:43:33;;;;;;;16.45;10.18;;;;;;;2.69;77.16;101179.78;4998436;28;20080;-74
2022/04/04 05:45:59;;;;;;;12.55;9.10;;;;;;;2.73;77.49;101165.94;4998526;28;20033;-73
2022/04/04 05:48:27;;;;;;;16.27;8.98;;;;;;;2.74;76.62;101166.78;5015994;28;20038;-73
2022/04/04 05:50:53;;;;;;;14.93;9.73;;;;;;;2.78;76.41;101168.13;5016258;28;20037;-74
2022/04/04 05:53:19;;;;;;;13.40;9.43;;;;;;;2.82;76.00;101164.97;5014580;28;20049;-72
2022/04/04 05:55:44;;;;;;;12.10;8.43;;;;;;;2.77;76.73;101148.56;5015634;28;20377;-74
2022/04/04 05:58:09;;;;;;;14.68;9.50;;;;;;;2.81;77.00;101165.13;5015947;28;20061;-73
2022/04/04 06:00:35;;;;;;;17.38;9.70;;;;;;;2.82;76.36;101143.56;5012064;28;20040;-73
2022/04/04 06:03:01;;;;;;;15.77;8.90;;;;;;;2.85;76.68;101155.75;5015566;28;20088;-74
2022/04/04 06:05:26;;;;;;;13.32;8.75;;;;;;;2.91;75.95;101141.72;5015694;28;20046;-73
2022/04/04 06:07:52;;;;;;;14.40;9.10;;;;;;;2.93;76.14;101141.53;4998007;28;20523;-74
2022/04/04 06:10:18;;;;;;;15.65;9.32;;;;;;;2.99;75.55;101128.38;5016004;28;20034;-72
2022/04/04 06:12:43;;;;;;;14.38;9.48;;;;;;;2.98;75.66;101140.06;5015463;28;20481;-72
2022/04/04 06:15:10;;;;;;;18.83;10.43;;;;;;;2.98;76.06;101132.03;4998096;28;20083;-72
2022/04/04 06:17:36;;;;;;;15.52;9.48;;;;;;;3.05;76.07;101126.00;5015251;28;20034;-74
2022/04/04 06:20:03;;;;;;;13.60;9.20;;;;;;;3.08;75.64;101126.53;5015371;28;20034;-72
2022/04/04 06:22:34;;;;;;;17.83;10.65;;;;;;;3.10;75.64;101121.00;5015258;28;20029;-72
2022/04/04 06:24:59;;;;;;;13.43;9.10;;;;;;;3.23;74.50;101112.44;5015504;28;20038;-74
2022/04/04 06:27:25;;;;;;;16.08;9.95;;;;;;;3.20;75.10;101113.59;5015339;28;20040;-72
2022/04/04 06:29:50;;;;;;;12.40;9.27;;;;;;;3.21;75.57;101111.78;5015091;28;20034;-74
2022/04/04 06:32:15;;;;;;;16.48;9.05;;;;;;;3.21;75.08;101111.78;5014909;28;20034;-72
2022/04/04 06:34:40;;;;;;;15.23;9.00;;;;;;;3.23;74.92;101102.59;5014724;28;20108;-73
2022/04/04 06:37:06;;;;;;;16.10;10.13;;;;;;;3.30;75.07;101087.50;5014933;28;20034;-72
2022/04/04 06:39:31;;;;;;;16.08;9.70;;;;;;;3.39;75.20;101096.34;4997365;28;20084;-74
2022/04/04 06:41:57;;;;;;;15.52;9.75;;;;;;;3.42;74.79;101097.88;5013817;28;20030;-73
2022/04/04 06:44:23;;;;;;;18.67;9.85;;;;;;;3.47;74.65;101082.13;5015020;28;20088;-73
2022/04/04 06:46:49;;;;;;;14.73;9.55;;;;;;;3.54;74.80;101083.09;5014907;28;20036;-74
2022/04/04 06:49:14;;;;;;;17.05;9.35;;;;;;;3.59;74.55;101070.03;5015118;28;20113;-76
2022/04/04 06:51:39;;;;;;;14.00;8.95;;;;;;;3.65;73.48;101068.50;5013327;28;20032;-76
2022/04/04 06:54:05;;;;;;;19.45;10.32;;;;;;;3.67;73.78;101070.00;5015015;28;20381;-74
2022/04/04 06:56:31;;;;;;;14.63;8.40;;;;;;;3.69;73.94;101057.28;5014784;28;20092;-77
2022/04/04 06:58:57;;;;;;;16.98;9.38;;;;;;;3.73;73.60;101058.59;5014881;28;20057;-76
2022/04/04 07:01:22;;;;;;;16.77;8.73;;;;;;;3.81;73.53;101059.56;5012427;28;20515;-76
2022/04/04 07:03:48;;;;;;;18.38;8.90;;;;;;;3.81;73.48;101047.03;5014665;28;20088;-77
2022/04/04 07:06:13;;;;;;;15.02;9.13;;;;;;;3.87;72.94;101048.16;5015038;28;20021;-76
2022/04/04 07:08:38;;;;;;;15.10;9.30;;;;;;;3.93;72.99;101054.66;4996700;28;20531;-78
2022/04/04 07:11:05;;;;;;;13.65;8.70;;;;;;;4.00;72.73;101045.75;4996900;28;20042;-76
2022/04/04 07:13:34;;;;;;;11.13;8.35;;;;;;;4.02;72.29;101021.47;5014561;28;20037;-74
2022/04/04 07:15:59;;;;;;;12.45;8.65;;;;;;;4.06;72.15;101030.78;5014639;28;20034;-76
2022/04/04 07:18:24;;;;;;;14.43;9.18;;;;;;;4.07;72.11;101019.91;5014227;28;20033;-76
2022/04/04 07:20:49;;;;;;;17.85;9.70;;;;;;;4.08;72.24;101013.53;5013027;28;20091;-76
2022/04/04 07:23:15;;;;;;;17.15;8.48;;;;;;;4.12;71.99;101011.34;5014501;28;20518;-76
2022/04/04 07:25:40;;;;;;;17.05;9.02;;;;;;;4.13;72.56;101001.47;5014255;28;20108;-76
2022/04/04 07:28:05;;;;;;;13.40;8.90;;;;;;;4.16;71.63;100991.22;5014290;28;20405;-76
2022/04/04 07:30:31;;;;;;;16.23;9.05;;;;;;;4.23;71.49;100996.72;5014323;28;20477;-76
2022/04/04 07:32:56;;;;;;;14.80;7.93;;;;;;;4.25;71.43;100990.13;5013935;28;20080;-76
2022/04/04 07:35:22;;;;;;;13.90;8.80;;;;;;;4.31;70.94;100985.91;5013086;28;20030;-76
2022/04/04 07:37:49;;;;;;;16.52;8.63;;;;;;;4.30;71.30;100994.97;5014139;28;20030;-76
2022/04/04 07:40:16;;;;;;;17.70;8.52;;;;;;;4.36;71.51;100990.72;5014301;28;20087;-76
2022/04/04 07:42:44;;;;;;;17.13;9.38;;;;;;;4.38;71.20;100989.53;5012794;28;20037;-76
2022/04/04 07:45:11;;;;;;;16.25;8.48;;;;;;;4.39;71.88;100977.81;5012674;28;20066;-76
2022/04/04 07:47:37;;;;;;;21.92;8.88;;;;;;;4.41;71.60;100974.97;5013730;28;20121;-75
2022/04/04 07:50:04;;;;;;;16.55;8.73;;;;;;;4.49;71.43;100968.69;5014209;28;20061;-75
2022/04/04 07:52:30;;;;;;;15.07;9.15;;;;;;;4.47;71.43;100981.44;5003858;28;20082;-76
2022/04/04 07:54:55;;;;;;;16.17;8.93;;;;;;;4.53;71.19;100965.47;4993694;28;20507;-76
2022/04/04 07:57:21;;;;;;;18.95;9.30;;;;;;;4.58;70.92;100954.19;4993831;28;20030;-75
2022/04/04 07:59:47;;;;;;;14.88;9.15;;;;;;;4.67;71.14;100939.69;4993810;28;20038;-75
2022/04/04 08:02:12;;;;;;;16.83;9.23;;;;;;;4.73;71.26;100936.28;4991628;28;20378;-75
2022/04/04 08:04:44;;;;;;;13.57;8.50;;;;;;;4.79;70.18;100935.53;5069415;28;20693;-77
2022/04/04 08:07:09;;;;;;;17.35;8.73;;;;;;;4.86;70.71;100930.28;5069729;28;20036;-75
2022/04/04 08:09:35;;;;;;;15.30;8.65;;;;;;;4.99;69.69;100934.97;5068341;28;20028;-75
2022/04/04 08:12:00;;;;;;;15.45;9.20;;;;;;;5.05;70.49;100911.94;5068610;28;20098;-75
2022/04/04 08:14:26;;;;;;;17.20;9.00;;;;;;;5.09;68.72;100906.03;5068550;28;20029;-76
2022/04/04 08:16:52;;;;;;;17.85;8.77;;;;;;;5.19;68.77;100915.63;5069744;28;20035;-75
2022/04/04 08:19:17;;;;;;;11.00;7.78;;;;;;;5.26;68.46;100905.81;5069742;28;20033;-76
2022/04/04 08:21:44;;;;;;;13.40;8.13;;;;;;;5.34;67.82;100905.69;5069540;28;20028;-76
2022/04/04 08:24:10;;;;;;;19.75;7.70;;;;;;;5.37;68.25;100902.63;5069511;28;20070;-76
2022/04/04 08:26:35;;;;;;;18.35;8.30;;;;;;;5.43;68.87;100898.34;5068265;28;20159;-76
2022/04/04 08:29:01;;;;;;;17.65;7.20;;;;;;;5.52;67.65;100902.56;5068385;28;20479;-77
2022/04/04 08:31:26;;;;;;;14.02;7.78;;;;;;;5.58;66.43;100884.88;5069251;28;20141;-77
2022/04/04 08:33:52;;;;;;;15.75;6.78;;;;;;;5.62;66.38;100894.22;5069326;28;20375;-76
2022/04/04 08:36:17;;;;;;;20.90;7.65;;;;;;;5.67;67.29;100873.81;5069368;28;20025;-76
2022/04/04 08:38:42;;;;;;;11.10;7.50;;;;;;;5.72;66.82;100883.97;5067496;28;20025;-76
2022/04/04 08:41:10;;;;;;;20.73;7.32;;;;;;;5.77;66.00;100870.81;5069324;28;20091;-77
2022/04/04 08:43:38;;;;;;;13.85;6.93;;;;;;;5.88;65.64;100865.97;5076058;28;20032;-77
2022/04/04 08:46:06;;;;;;;14.75;6.55;;;;;;;5.97;65.11;100860.28;5077523;28;20028;-83
2022/04/04 08:48:34;;;;;;;12.23;7.28;;;;;;;5.95;65.63;100850.69;5069266;28;20057;-76
2022/04/04 08:50:59;;;;;;;16.50;7.70;;;;;;;5.96;64.91;100849.69;5068735;28;20040;-75
2022/04/04 08:53:24;;;;;;;28.88;7.25;;;;;;;6.06;64.79;100869.03;5067874;28;20037;-75
2022/04/04 08:55:50;;;;;;;18.00;6.85;;;;;;;6.07;64.40;100859.94;5067395;28;20043;-74
2022/04/04 08:58:15;;;;;;;14.63;7.72;;;;;;;6.03;64.99;100847.94;5067199;28;20554;-74
2022/04/04 09:00:41;;;;;;;14.68;7.22;;;;;;;6.01;64.90;100848.13;5065843;28;20017;-74
2022/04/04 09:03:08;;;;;;;15.82;6.88;;;;;;;6.02;64.74;100838.19;5050649;28;20481;-75
2022/04/04 09:05:35;;;;;;;15.93;7.22;;;;;;;5.98;65.42;100835.09;5047643;28;20416;-74
2022/04/04 09:08:06;;;;;;;18.30;7.68;;;;;;;5.92;65.61;100841.19;5048475;28;20037;-74
2022/04/04 09:10:36;;;;;;;15.95;7.10;;;;;;;5.98;66.21;100835.09;5048514;28;20503;-75
2022/04/04 09:13:15;;;;;;;12.98;8.25;;;;;;;5.94;66.68;100843.69;5048333;28;20116;-75
2022/04/04 09:15:52;;;;;;;20.52;7.65;;;;;;;5.84;67.31;100828.75;5037402;28;20076;-75
2022/04/04 09:18:19;;;;;;;11.85;7.95;;;;;;;5.78;67.57;100834.91;5035234;28;20029;-75
2022/04/04 09:20:53;;;;;;;11.25;7.47;;;;;;;5.85;67.47;100827.69;5035571;28;20052;-74
2022/04/04 09:23:18;;;;;;;13.82;7.25;;;;;;;5.85;67.27;100819.66;5035211;28;20354;-76
2022/04/04 09:25:44;;;;;;;11.10;7.22;;;;;;;5.84;68.32;100825.22;5035307;28;20104;-75
2022/04/04 09:28:18;;;;;;;16.63;8.10;;;;;;;5.74;68.95;100814.81;5050642;28;20388;-73
2022/04/04 09:31:04;;;;;;;23.65;9.23;;;;;;;5.85;68.75;100802.72;5054872;28;20048;-75
2022/04/04 09:33:40;;;;;;;15.35;8.10;;;;;;;5.82;69.22;100801.25;5054425;28;20460;-74
2022/04/04 09:36:08;;;;;;;13.77;7.55;;;;;;;5.75;70.44;100795.00;5054669;28;20033;-75
2022/04/04 09:38:35;;;;;;;12.80;8.30;;;;;;;5.75;71.31;100803.06;5054874;28;20068;-75
2022/04/04 09:41:20;;;;;;;13.77;9.00;;;;;;;5.69;71.80;100793.06;5053786;28;20086;-75
2022/04/04 09:43:49;;;;;;;17.88;10.05;;;;;;;5.59;73.60;100787.22;5034310;28;20056;-75
2022/04/04 09:46:14;;;;;;;12.63;8.45;;;;;;;5.63;72.64;100788.47;5034758;28;20029;-75
2022/04/04 09:49:00;;;;;;;16.15;8.30;;;;;;;5.62;73.16;100786.84;5034687;28;20025;-75
2022/04/04 09:51:49;;;;;;;13.73;8.75;;;;;;;5.64;73.18;100787.47;5034815;28;20026;-75
2022/04/04 09:54:26;;;;;;;13.35;8.43;;;;;;;5.60;73.84;100788.88;5034412;28;20029;-75
2022/04/04 09:57:09;;;;;;;15.23;9.38;;;;;;;5.65;74.31;100783.78;5032953;28;20362;-75
2022/04/04 09:59:37;;;;;;;12.93;9.15;;;;;;;5.49;75.02;100776.81;5033262;28;20033;-74
2022/04/04 10:02:02;;;;;;;15.93;9.27;;;;;;;5.54;74.65;100784.28;5031956;28;20525;-75
2022/04/04 10:04:32;;;;;;;15.57;9.10;;;;;;;5.43;75.24;100767.66;5034109;28;20099;-75
2022/04/04 10:07:04;;;;;;;14.52;9.07;;;;;;;5.44;76.43;100769.34;5033175;28;20037;-75
2022/04/04 10:09:30;;;;;;;15.77;9.48;;;;;;;5.46;76.25;100767.28;5049088;28;20032;-74
2022/04/04 10:11:57;;;;;;;15.40;9.57;;;;;;;5.49;76.43;100783.00;5053637;28;20397;-75
2022/04/04 10:14:23;;;;;;;13.93;9.40;;;;;;;5.50;76.75;100762.38;5054165;28;20074;-74
2022/04/04 10:16:52;;;;;;;13.82;8.50;;;;;;;5.44;77.25;100752.41;5054123;28;20033;-75
2022/04/04 10:19:18;;;;;;;13.95;10.18;;;;;;;5.43;78.50;100772.22;5052811;28;20021;-75
2022/04/04 10:21:43;;;;;;;21.52;9.80;;;;;;;5.39;78.34;100747.63;5053524;28;20435;-75
2022/04/04 10:24:11;;;;;;;16.42;10.77;;;;;;;5.37;79.30;100752.34;5035639;28;20025;-75
2022/04/04 10:26:37;;;;;;;14.63;9.77;;;;;;;5.39;79.61;100755.69;5032989;28;20030;-75
2022/04/04 10:29:10;;;;;;;14.00;9.25;;;;;;;5.40;79.13;100753.81;5046566;28;20044;-74
2022/04/04 10:31:51;;;;;;;14.57;9.15;;;;;;;5.36;80.06;100747.16;5053923;28;20032;-74
2022/04/04 10:34:23;;;;;;;15.50;10.50;;;;;;;5.29;81.17;100753.31;5035138;28;20072;-74
2022/04/04 10:37:03;;;;;;;18.42;10.60;;;;;;;5.30;81.74;100754.97;5033649;28;20029;-73
2022/04/04 10:39:39;;;;;;;16.02;11.15;;;;;;;5.31;82.22;100755.78;5033524;28;20116;-73
2022/04/04 10:42:33;;;;;;;20.95;11.40;;;;;;;5.28;82.74;100749.00;5033645;28;20092;-74
2022/04/04 10:45:02;;;;;;;15.73;10.98;;;;;;;5.28;83.49;100757.03;5033404;28;20040;-74
2022/04/04 10:47:30;;;;;;;15.32;10.40;;;;;;;5.23;83.27;100750.56;5043004;28;20028;-73
2022/04/04 10:50:14;;;;;;;17.88;11.52;;;;;;;5.19;84.08;100754.66;5036333;28;20174;-74
2022/04/04 10:52:42;;;;;;;19.67;11.55;;;;;;;5.21;84.11;100752.59;5053693;28;20033;-74
2022/04/04 10:55:23;;;;;;;18.38;11.85;;;;;;;5.10;85.99;100733.34;5052315;28;20132;-74
2022/04/04 10:57:49;;;;;;;13.43;10.43;;;;;;;5.12;85.59;100743.88;5051795;28;20471;-74
2022/04/04 11:00:16;;;;;;;16.40;10.50;;;;;;;5.08;86.07;100727.31;5053096;28;20036;-74
2022/04/04 11:02:44;;;;;;;14.57;10.88;;;;;;;5.11;86.51;100737.66;5049656;28;20045;-74
2022/04/04 11:08:35;;;;;;;16.73;10.93;;;;;;;5.09;86.83;100722.81;5053112;28;20035;-74
2022/04/04 11:11:01;;;;;;;15.20;11.38;;;;;;;5.08;87.50;100708.53;5052889;28;20028;-75
2022/04/04 11:13:27;;;;;;;15.98;10.13;;;;;;;5.11;87.61;100710.03;5053290;28;20040;-74
2022/04/04 11:15:55;;;;;;;15.32;10.40;;;;;;;5.09;87.65;100712.91;5052736;28;20021;-74
2022/04/04 11:18:24;;;;;;;16.30;11.05;;;;;;;5.08;88.40;100710.41;5053061;28;20036;-74
2022/04/04 11:20:59;;;;;;;14.93;9.98;;;;;;;5.08;87.82;100710.41;5052706;28;20574;-74
2022/04/04 11:23:34;;;;;;;15.15;10.70;;;;;;;5.07;87.93;100714.09;5052910;28;20029;-74
2022/04/04 11:26:01;;;;;;;13.20;10.20;;;;;;;5.08;87.71;100703.19;5052357;28;20435;-75
2022/04/04 11:28:31;;;;;;;11.85;9.60;;;;;;;5.03;87.63;100697.56;5051560;28;20483;-74
2022/04/04 11:31:07;;;;;;;12.65;9.88;;;;;;;5.09;87.35;100688.75;5052570;28;20032;-75